This is the latest recevied weather packets stored in our database for station/object DB0NU-15. If no packets are shown the sender has not sent any weather packets the latest 10 day(s).
| Time | Temp. | Humidity | Pressure | Rain* | Wind** | Luminosity | Snow |
|---|---|---|---|---|---|---|---|
| 1777758628 | 17.78° C | 42% | 1017.8 hPa | 0 mm | - | - | - |
| 1777758025 | 17.78° C | 41% | 1017.8 hPa | 0 mm | - | - | - |
| 1777757421 | 18.33° C | 41% | 1017.8 hPa | 0 mm | - | - | - |
| 1777756275 | 17.22° C | 43% | 1018 hPa | 0 mm | - | - | - |
| 1777755672 | 17.22° C | 44% | 1018 hPa | 0 mm | - | - | - |
| 1777755068 | 17.78° C | 41% | 1018.1 hPa | 0 mm | - | - | - |
| 1777754464 | 18.33° C | 40% | 1018.1 hPa | 0 mm | - | - | - |
| 1777753861 | 17.78° C | 41% | 1018.1 hPa | 0 mm | - | - | - |
| 1777753257 | 18.33° C | 40% | 1018.4 hPa | 0 mm | - | - | - |
| 1777752654 | 18.33° C | 40% | 1018.3 hPa | 0 mm | - | - | - |
| 1777752050 | 18.89° C | 38% | 1018.3 hPa | 0 mm | - | - | - |
| 1777751447 | 18.33° C | 40% | 1018.4 hPa | 0 mm | - | - | - |
| 1777750843 | 18.33° C | 40% | 1018.3 hPa | 0 mm | - | - | - |
| 1777750240 | 18.33° C | 41% | 1018.3 hPa | 0 mm | - | - | - |
| 1777749637 | 18.33° C | 42% | 1018.2 hPa | 0 mm | - | - | - |
| 1777749034 | 18.33° C | 43% | 1018.3 hPa | 0 mm | - | - | - |
| 1777748430 | 18.33° C | 44% | 1018.3 hPa | 0 mm | - | - | - |
| 1777747827 | 18.33° C | 43% | 1018.2 hPa | 0 mm | - | - | - |
| 1777747223 | 18.33° C | 43% | 1018.2 hPa | 0 mm | - | - | - |
| 1777746017 | 18.89° C | 45% | 1018.3 hPa | 0 mm | - | - | - |
| 1777744870 | 20° C | 42% | 1018.3 hPa | 0 mm | - | - | - |
| 1777744267 | 20.56° C | 40% | 1018.3 hPa | 0 mm | - | - | - |
| 1777743663 | 21.11° C | 38% | 1018.1 hPa | 0 mm | - | - | - |
| 1777743060 | 21.67° C | 37% | 1018.2 hPa | 0 mm | - | - | - |
| 1777742456 | 21.67° C | 37% | 1018.2 hPa | 0 mm | - | - | - |
* Rain latest hour (hover to see other rain measurements)
** Current wind speed in m/s (hover to see current wind gust speed)